sensor_id;sensor_type;location;lat;lon;timestamp;temperature;humidity
12926;DHT22;6529;50.566;9.774;2022-07-21T00:02:03;22.00;99.90
12926;DHT22;6529;50.566;9.774;2022-07-21T00:04:29;22.00;99.90
12926;DHT22;6529;50.566;9.774;2022-07-21T00:06:54;22.10;99.90
12926;DHT22;6529;50.566;9.774;2022-07-21T00:09:20;22.10;99.90
12926;DHT22;6529;50.566;9.774;2022-07-21T00:11:46;22.10;99.90
12926;DHT22;6529;50.566;9.774;2022-07-21T00:14:12;22.10;99.90
12926;DHT22;6529;50.566;9.774;2022-07-21T00:16:39;22.10;99.90
12926;DHT22;6529;50.566;9.774;2022-07-21T00:19:05;22.00;99.90
12926;DHT22;6529;50.566;9.774;2022-07-21T00:21:31;22.00;99.90
12926;DHT22;6529;50.566;9.774;2022-07-21T00:23:56;21.80;99.90
12926;DHT22;6529;50.566;9.774;2022-07-21T00:26:22;21.90;99.90
12926;DHT22;6529;50.566;9.774;2022-07-21T00:28:49;21.80;99.90
12926;DHT22;6529;50.566;9.774;2022-07-21T00:31:14;21.80;99.90
12926;DHT22;6529;50.566;9.774;2022-07-21T00:33:40;21.80;99.90
12926;DHT22;6529;50.566;9.774;2022-07-21T00:36:06;21.80;99.90
12926;DHT22;6529;50.566;9.774;2022-07-21T00:38:31;21.80;99.90
12926;DHT22;6529;50.566;9.774;2022-07-21T00:40:57;21.70;99.90
12926;DHT22;6529;50.566;9.774;2022-07-21T00:43:23;21.90;99.90
12926;DHT22;6529;50.566;9.774;2022-07-21T00:45:48;21.90;99.90
12926;DHT22;6529;50.566;9.774;2022-07-21T00:48:17;21.90;99.90
12926;DHT22;6529;50.566;9.774;2022-07-21T00:50:42;21.90;99.90
12926;DHT22;6529;50.566;9.774;2022-07-21T00:53:08;21.90;99.90
12926;DHT22;6529;50.566;9.774;2022-07-21T00:55:33;21.90;99.90
12926;DHT22;6529;50.566;9.774;2022-07-21T00:57:59;22.00;99.90
12926;DHT22;6529;50.566;9.774;2022-07-21T01:00:28;22.00;99.90
12926;DHT22;6529;50.566;9.774;2022-07-21T01:02:54;22.00;99.90
12926;DHT22;6529;50.566;9.774;2022-07-21T01:05:20;22.10;99.90
12926;DHT22;6529;50.566;9.774;2022-07-21T01:07:49;22.10;99.90
12926;DHT22;6529;50.566;9.774;2022-07-21T01:10:16;22.10;99.90
12926;DHT22;6529;50.566;9.774;2022-07-21T01:12:42;22.00;99.90
12926;DHT22;6529;50.566;9.774;2022-07-21T01:15:10;21.90;99.90
12926;DHT22;6529;50.566;9.774;2022-07-21T01:17:36;22.00;99.90
12926;DHT22;6529;50.566;9.774;2022-07-21T01:20:05;22.00;99.90
12926;DHT22;6529;50.566;9.774;2022-07-21T01:22:33;21.90;99.90
12926;DHT22;6529;50.566;9.774;2022-07-21T01:24:59;21.80;99.90
12926;DHT22;6529;50.566;9.774;2022-07-21T01:27:26;21.90;99.90
12926;DHT22;6529;50.566;9.774;2022-07-21T01:29:53;21.90;99.90
12926;DHT22;6529;50.566;9.774;2022-07-21T01:32:19;21.90;99.90
12926;DHT22;6529;50.566;9.774;2022-07-21T01:34:44;21.90;99.90
12926;DHT22;6529;50.566;9.774;2022-07-21T01:37:10;21.80;99.90
12926;DHT22;6529;50.566;9.774;2022-07-21T01:39:36;21.70;99.90
12926;DHT22;6529;50.566;9.774;2022-07-21T01:42:20;21.70;99.90
12926;DHT22;6529;50.566;9.774;2022-07-21T01:44:45;21.60;99.90
12926;DHT22;6529;50.566;9.774;2022-07-21T01:47:11;21.60;99.90
12926;DHT22;6529;50.566;9.774;2022-07-21T01:49:37;21.40;99.90
12926;DHT22;6529;50.566;9.774;2022-07-21T01:52:02;21.40;99.90
12926;DHT22;6529;50.566;9.774;2022-07-21T01:54:28;21.40;99.90
12926;DHT22;6529;50.566;9.774;2022-07-21T01:56:53;21.30;99.90
12926;DHT22;6529;50.566;9.774;2022-07-21T01:59:19;21.40;99.90
12926;DHT22;6529;50.566;9.774;2022-07-21T02:01:45;21.40;99.90
12926;DHT22;6529;50.566;9.774;2022-07-21T02:04:10;21.30;99.90
12926;DHT22;6529;50.566;9.774;2022-07-21T02:06:36;21.10;99.90
12926;DHT22;6529;50.566;9.774;2022-07-21T02:09:02;21.10;99.90
12926;DHT22;6529;50.566;9.774;2022-07-21T02:11:27;21.10;99.90
12926;DHT22;6529;50.566;9.774;2022-07-21T02:13:53;21.00;99.90
12926;DHT22;6529;50.566;9.774;2022-07-21T02:16:19;21.00;99.90
12926;DHT22;6529;50.566;9.774;2022-07-21T02:18:44;21.00;99.90
12926;DHT22;6529;50.566;9.774;2022-07-21T02:21:10;21.10;99.90
12926;DHT22;6529;50.566;9.774;2022-07-21T02:23:36;21.10;99.90
12926;DHT22;6529;50.566;9.774;2022-07-21T02:26:02;21.10;99.90
12926;DHT22;6529;50.566;9.774;2022-07-21T02:28:28;21.30;99.90
12926;DHT22;6529;50.566;9.774;2022-07-21T02:30:54;21.30;99.90
12926;DHT22;6529;50.566;9.774;2022-07-21T02:33:21;21.30;99.90
12926;DHT22;6529;50.566;9.774;2022-07-21T02:35:47;21.40;99.90
12926;DHT22;6529;50.566;9.774;2022-07-21T02:38:13;21.40;99.90
12926;DHT22;6529;50.566;9.774;2022-07-21T02:40:39;21.40;99.90
12926;DHT22;6529;50.566;9.774;2022-07-21T02:43:05;21.40;99.90
12926;DHT22;6529;50.566;9.774;2022-07-21T02:45:32;21.50;99.90
12926;DHT22;6529;50.566;9.774;2022-07-21T02:48:00;21.40;99.90
12926;DHT22;6529;50.566;9.774;2022-07-21T02:50:29;21.40;99.90
12926;DHT22;6529;50.566;9.774;2022-07-21T02:52:56;21.40;99.90
12926;DHT22;6529;50.566;9.774;2022-07-21T02:55:23;21.20;99.90
12926;DHT22;6529;50.566;9.774;2022-07-21T02:57:49;21.10;99.90
12926;DHT22;6529;50.566;9.774;2022-07-21T03:00:14;21.10;99.90
12926;DHT22;6529;50.566;9.774;2022-07-21T03:02:40;21.10;99.90
12926;DHT22;6529;50.566;9.774;2022-07-21T03:05:06;21.10;99.90
12926;DHT22;6529;50.566;9.774;2022-07-21T03:07:32;21.10;99.90
12926;DHT22;6529;50.566;9.774;2022-07-21T03:09:57;21.00;99.90
12926;DHT22;6529;50.566;9.774;2022-07-21T03:12:23;21.10;99.90
12926;DHT22;6529;50.566;9.774;2022-07-21T03:14:48;21.10;99.90
12926;DHT22;6529;50.566;9.774;2022-07-21T03:17:14;21.00;99.90
12926;DHT22;6529;50.566;9.774;2022-07-21T03:19:39;21.00;99.90
12926;DHT22;6529;50.566;9.774;2022-07-21T03:22:05;21.00;99.90
12926;DHT22;6529;50.566;9.774;2022-07-21T03:24:31;21.00;99.90
12926;DHT22;6529;50.566;9.774;2022-07-21T03:26:57;21.10;99.90
12926;DHT22;6529;50.566;9.774;2022-07-21T03:29:23;21.00;99.90
12926;DHT22;6529;50.566;9.774;2022-07-21T03:31:49;21.00;99.90
12926;DHT22;6529;50.566;9.774;2022-07-21T03:34:14;21.00;99.90
12926;DHT22;6529;50.566;9.774;2022-07-21T03:36:40;21.00;99.90
12926;DHT22;6529;50.566;9.774;2022-07-21T03:39:06;20.90;99.90
12926;DHT22;6529;50.566;9.774;2022-07-21T03:41:31;20.90;99.90
12926;DHT22;6529;50.566;9.774;2022-07-21T03:43:57;20.90;99.90
12926;DHT22;6529;50.566;9.774;2022-07-21T03:46:23;21.00;99.90
12926;DHT22;6529;50.566;9.774;2022-07-21T03:48:49;21.00;99.90
12926;DHT22;6529;50.566;9.774;2022-07-21T03:51:15;20.90;99.90
12926;DHT22;6529;50.566;9.774;2022-07-21T03:53:40;20.80;99.90
12926;DHT22;6529;50.566;9.774;2022-07-21T03:56:06;20.70;99.90
12926;DHT22;6529;50.566;9.774;2022-07-21T03:58:32;20.80;99.90
12926;DHT22;6529;50.566;9.774;2022-07-21T04:00:57;20.70;99.90
12926;DHT22;6529;50.566;9.774;2022-07-21T04:03:23;20.70;99.90
12926;DHT22;6529;50.566;9.774;2022-07-21T04:05:49;20.70;99.90
12926;DHT22;6529;50.566;9.774;2022-07-21T04:08:15;20.80;99.90
12926;DHT22;6529;50.566;9.774;2022-07-21T04:10:42;20.70;99.90
12926;DHT22;6529;50.566;9.774;2022-07-21T04:13:10;20.60;99.90
12926;DHT22;6529;50.566;9.774;2022-07-21T04:15:36;20.60;99.90
12926;DHT22;6529;50.566;9.774;2022-07-21T04:18:02;20.60;99.90
12926;DHT22;6529;50.566;9.774;2022-07-21T04:20:29;20.70;99.90
12926;DHT22;6529;50.566;9.774;2022-07-21T04:22:54;20.70;99.90
12926;DHT22;6529;50.566;9.774;2022-07-21T04:25:20;20.60;99.90
12926;DHT22;6529;50.566;9.774;2022-07-21T04:27:47;20.60;99.90
12926;DHT22;6529;50.566;9.774;2022-07-21T04:30:18;20.50;99.90
12926;DHT22;6529;50.566;9.774;2022-07-21T04:32:44;20.60;99.90
12926;DHT22;6529;50.566;9.774;2022-07-21T04:35:10;20.60;99.90
12926;DHT22;6529;50.566;9.774;2022-07-21T04:37:36;20.70;99.90
12926;DHT22;6529;50.566;9.774;2022-07-21T04:40:04;20.70;99.90
12926;DHT22;6529;50.566;9.774;2022-07-21T04:42:29;20.60;99.90
12926;DHT22;6529;50.566;9.774;2022-07-21T04:44:55;20.60;99.90
12926;DHT22;6529;50.566;9.774;2022-07-21T04:47:21;20.60;99.90
12926;DHT22;6529;50.566;9.774;2022-07-21T04:49:47;20.60;99.90
12926;DHT22;6529;50.566;9.774;2022-07-21T04:52:12;20.60;99.90
12926;DHT22;6529;50.566;9.774;2022-07-21T04:54:38;20.70;99.90
12926;DHT22;6529;50.566;9.774;2022-07-21T04:57:04;20.70;99.90
12926;DHT22;6529;50.566;9.774;2022-07-21T04:59:31;20.70;99.90
12926;DHT22;6529;50.566;9.774;2022-07-21T05:01:58;20.60;99.90
12926;DHT22;6529;50.566;9.774;2022-07-21T05:04:24;20.60;99.90
12926;DHT22;6529;50.566;9.774;2022-07-21T05:06:49;20.60;99.90
12926;DHT22;6529;50.566;9.774;2022-07-21T05:09:15;20.50;99.90
12926;DHT22;6529;50.566;9.774;2022-07-21T05:11:41;20.60;99.90
12926;DHT22;6529;50.566;9.774;2022-07-21T05:14:06;20.60;99.90
12926;DHT22;6529;50.566;9.774;2022-07-21T05:16:32;20.80;99.90
12926;DHT22;6529;50.566;9.774;2022-07-21T05:18:57;21.00;99.90
12926;DHT22;6529;50.566;9.774;2022-07-21T05:21:23;21.00;99.90
12926;DHT22;6529;50.566;9.774;2022-07-21T05:23:48;21.20;99.90
12926;DHT22;6529;50.566;9.774;2022-07-21T05:26:14;21.40;99.90
12926;DHT22;6529;50.566;9.774;2022-07-21T05:28:40;21.50;99.90
12926;DHT22;6529;50.566;9.774;2022-07-21T05:31:07;21.50;99.90
12926;DHT22;6529;50.566;9.774;2022-07-21T05:33:33;21.40;99.90
12926;DHT22;6529;50.566;9.774;2022-07-21T05:35:58;21.20;99.90
12926;DHT22;6529;50.566;9.774;2022-07-21T05:38:24;21.30;99.90
12926;DHT22;6529;50.566;9.774;2022-07-21T05:40:50;21.30;99.90
12926;DHT22;6529;50.566;9.774;2022-07-21T05:43:15;21.20;99.90
12926;DHT22;6529;50.566;9.774;2022-07-21T05:45:41;21.20;99.90
12926;DHT22;6529;50.566;9.774;2022-07-21T05:48:06;21.00;99.90
12926;DHT22;6529;50.566;9.774;2022-07-21T05:50:32;21.00;99.90
12926;DHT22;6529;50.566;9.774;2022-07-21T05:52:58;21.00;99.90
12926;DHT22;6529;50.566;9.774;2022-07-21T05:55:23;21.10;99.90
12926;DHT22;6529;50.566;9.774;2022-07-21T05:57:49;21.20;99.90
12926;DHT22;6529;50.566;9.774;2022-07-21T06:00:16;21.30;99.90
12926;DHT22;6529;50.566;9.774;2022-07-21T06:02:43;21.50;99.90
12926;DHT22;6529;50.566;9.774;2022-07-21T06:05:09;21.70;99.90
12926;DHT22;6529;50.566;9.774;2022-07-21T06:07:36;21.80;99.90
12926;DHT22;6529;50.566;9.774;2022-07-21T06:10:03;21.80;99.90
12926;DHT22;6529;50.566;9.774;2022-07-21T06:12:28;21.90;99.90
12926;DHT22;6529;50.566;9.774;2022-07-21T06:14:54;21.80;99.90
12926;DHT22;6529;50.566;9.774;2022-07-21T06:17:21;21.70;99.90
12926;DHT22;6529;50.566;9.774;2022-07-21T06:19:47;21.60;99.90
12926;DHT22;6529;50.566;9.774;2022-07-21T06:22:12;21.60;99.90
12926;DHT22;6529;50.566;9.774;2022-07-21T06:24:38;21.70;99.90
12926;DHT22;6529;50.566;9.774;2022-07-21T06:27:03;21.70;99.90
12926;DHT22;6529;50.566;9.774;2022-07-21T06:29:29;21.60;99.90
12926;DHT22;6529;50.566;9.774;2022-07-21T06:31:55;21.50;99.90
12926;DHT22;6529;50.566;9.774;2022-07-21T06:34:21;21.50;99.90
12926;DHT22;6529;50.566;9.774;2022-07-21T06:36:46;21.40;99.90
12926;DHT22;6529;50.566;9.774;2022-07-21T06:39:12;21.30;99.90
12926;DHT22;6529;50.566;9.774;2022-07-21T06:41:38;21.40;99.90
12926;DHT22;6529;50.566;9.774;2022-07-21T06:44:04;21.40;99.90
12926;DHT22;6529;50.566;9.774;2022-07-21T06:46:32;21.60;99.90
12926;DHT22;6529;50.566;9.774;2022-07-21T06:48:57;21.50;99.90
12926;DHT22;6529;50.566;9.774;2022-07-21T06:51:23;21.60;99.90
12926;DHT22;6529;50.566;9.774;2022-07-21T06:53:48;21.60;99.90
12926;DHT22;6529;50.566;9.774;2022-07-21T06:56:14;21.40;99.90
12926;DHT22;6529;50.566;9.774;2022-07-21T06:58:41;21.20;99.90
12926;DHT22;6529;50.566;9.774;2022-07-21T07:01:07;21.10;99.90
12926;DHT22;6529;50.566;9.774;2022-07-21T07:03:32;21.10;99.90
12926;DHT22;6529;50.566;9.774;2022-07-21T07:05:58;21.30;99.90
12926;DHT22;6529;50.566;9.774;2022-07-21T07:08:24;21.30;99.90
12926;DHT22;6529;50.566;9.774;2022-07-21T07:10:50;21.30;99.90
12926;DHT22;6529;50.566;9.774;2022-07-21T07:13:15;21.40;99.90
12926;DHT22;6529;50.566;9.774;2022-07-21T07:15:44;21.50;99.90
12926;DHT22;6529;50.566;9.774;2022-07-21T07:18:10;21.70;99.90
12926;DHT22;6529;50.566;9.774;2022-07-21T07:20:36;21.90;99.90
12926;DHT22;6529;50.566;9.774;2022-07-21T07:23:02;22.00;99.90
12926;DHT22;6529;50.566;9.774;2022-07-21T07:25:28;22.00;99.90
12926;DHT22;6529;50.566;9.774;2022-07-21T07:27:54;22.10;99.90
12926;DHT22;6529;50.566;9.774;2022-07-21T07:30:21;22.00;99.90
12926;DHT22;6529;50.566;9.774;2022-07-21T07:32:47;21.80;99.90
12926;DHT22;6529;50.566;9.774;2022-07-21T07:35:14;21.80;99.90
12926;DHT22;6529;50.566;9.774;2022-07-21T07:37:41;21.60;99.90
12926;DHT22;6529;50.566;9.774;2022-07-21T07:40:10;21.60;99.90
12926;DHT22;6529;50.566;9.774;2022-07-21T07:42:38;21.80;99.90
12926;DHT22;6529;50.566;9.774;2022-07-21T07:45:05;21.80;99.90
12926;DHT22;6529;50.566;9.774;2022-07-21T07:47:31;21.80;99.90
12926;DHT22;6529;50.566;9.774;2022-07-21T07:49:57;21.80;99.90
12926;DHT22;6529;50.566;9.774;2022-07-21T07:52:23;22.20;99.90
12926;DHT22;6529;50.566;9.774;2022-07-21T07:54:48;22.30;99.90
12926;DHT22;6529;50.566;9.774;2022-07-21T07:57:14;22.30;99.90
12926;DHT22;6529;50.566;9.774;2022-07-21T07:59:39;22.50;99.90
12926;DHT22;6529;50.566;9.774;2022-07-21T08:02:05;22.60;99.90
12926;DHT22;6529;50.566;9.774;2022-07-21T08:04:31;22.60;99.90
12926;DHT22;6529;50.566;9.774;2022-07-21T08:06:57;22.60;99.90
12926;DHT22;6529;50.566;9.774;2022-07-21T08:09:22;22.40;99.90
12926;DHT22;6529;50.566;9.774;2022-07-21T08:11:48;22.30;99.90
12926;DHT22;6529;50.566;9.774;2022-07-21T08:14:14;22.30;99.90
12926;DHT22;6529;50.566;9.774;2022-07-21T08:16:40;22.40;99.90
12926;DHT22;6529;50.566;9.774;2022-07-21T08:19:06;22.30;99.90
12926;DHT22;6529;50.566;9.774;2022-07-21T08:21:32;22.00;99.90
12926;DHT22;6529;50.566;9.774;2022-07-21T08:23:59;22.00;99.90
12926;DHT22;6529;50.566;9.774;2022-07-21T08:26:25;22.00;99.90
12926;DHT22;6529;50.566;9.774;2022-07-21T08:28:53;22.10;99.90
12926;DHT22;6529;50.566;9.774;2022-07-21T08:31:19;22.10;99.90
12926;DHT22;6529;50.566;9.774;2022-07-21T08:33:44;22.20;99.90
12926;DHT22;6529;50.566;9.774;2022-07-21T08:36:10;22.20;99.90
12926;DHT22;6529;50.566;9.774;2022-07-21T08:38:36;22.20;99.90
12926;DHT22;6529;50.566;9.774;2022-07-21T08:41:02;22.20;99.90
12926;DHT22;6529;50.566;9.774;2022-07-21T08:43:28;22.20;99.90
12926;DHT22;6529;50.566;9.774;2022-07-21T08:45:54;22.30;99.90
12926;DHT22;6529;50.566;9.774;2022-07-21T08:48:27;22.40;99.90
12926;DHT22;6529;50.566;9.774;2022-07-21T08:50:55;22.50;99.90
12926;DHT22;6529;50.566;9.774;2022-07-21T08:53:21;22.50;99.90
12926;DHT22;6529;50.566;9.774;2022-07-21T08:55:47;22.60;99.90
12926;DHT22;6529;50.566;9.774;2022-07-21T08:58:13;22.80;99.90
12926;DHT22;6529;50.566;9.774;2022-07-21T09:00:45;22.80;99.90
12926;DHT22;6529;50.566;9.774;2022-07-21T09:08:47;23.00;99.90
12926;DHT22;6529;50.566;9.774;2022-07-21T09:11:21;23.10;99.90
12926;DHT22;6529;50.566;9.774;2022-07-21T09:14:07;23.10;99.90
12926;DHT22;6529;50.566;9.774;2022-07-21T09:16:38;23.50;99.90
12926;DHT22;6529;50.566;9.774;2022-07-21T09:19:05;23.70;99.90
12926;DHT22;6529;50.566;9.774;2022-07-21T09:21:33;23.50;99.90
12926;DHT22;6529;50.566;9.774;2022-07-21T09:24:18;23.40;99.90
12926;DHT22;6529;50.566;9.774;2022-07-21T09:27:14;23.20;99.90
12926;DHT22;6529;50.566;9.774;2022-07-21T09:29:46;23.30;99.90
12926;DHT22;6529;50.566;9.774;2022-07-21T09:35:27;23.20;99.90
12926;DHT22;6529;50.566;9.774;2022-07-21T09:37:41;23.20;99.90
12926;DHT22;6529;50.566;9.774;2022-07-21T09:40:09;23.20;99.90
12926;DHT22;6529;50.566;9.774;2022-07-21T09:42:45;23.20;99.90
12926;DHT22;6529;50.566;9.774;2022-07-21T09:45:14;23.10;99.90
12926;DHT22;6529;50.566;9.774;2022-07-21T09:47:42;23.10;99.90
12926;DHT22;6529;50.566;9.774;2022-07-21T09:50:10;23.00;99.90
12926;DHT22;6529;50.566;9.774;2022-07-21T09:52:40;23.20;99.90
12926;DHT22;6529;50.566;9.774;2022-07-21T09:55:11;23.40;99.90
12926;DHT22;6529;50.566;9.774;2022-07-21T09:57:37;23.50;99.90
12926;DHT22;6529;50.566;9.774;2022-07-21T10:00:06;23.60;99.90
12926;DHT22;6529;50.566;9.774;2022-07-21T10:02:33;23.80;99.90
12926;DHT22;6529;50.566;9.774;2022-07-21T10:05:08;24.20;99.90
12926;DHT22;6529;50.566;9.774;2022-07-21T10:07:37;24.50;99.90
12926;DHT22;6529;50.566;9.774;2022-07-21T10:10:03;24.60;99.90
12926;DHT22;6529;50.566;9.774;2022-07-21T10:12:30;24.70;99.90
12926;DHT22;6529;50.566;9.774;2022-07-21T10:14:56;24.60;99.90
12926;DHT22;6529;50.566;9.774;2022-07-21T10:17:23;24.80;99.90
12926;DHT22;6529;50.566;9.774;2022-07-21T10:20:16;24.70;99.90
12926;DHT22;6529;50.566;9.774;2022-07-21T10:22:58;24.50;99.90
12926;DHT22;6529;50.566;9.774;2022-07-21T10:25:26;24.60;99.90
12926;DHT22;6529;50.566;9.774;2022-07-21T10:30:41;24.90;99.90
12926;DHT22;6529;50.566;9.774;2022-07-21T10:33:07;25.10;99.90
12926;DHT22;6529;50.566;9.774;2022-07-21T10:35:33;25.20;99.90
12926;DHT22;6529;50.566;9.774;2022-07-21T10:38:01;25.50;99.90
12926;DHT22;6529;50.566;9.774;2022-07-21T10:45:42;25.70;99.90
12926;DHT22;6529;50.566;9.774;2022-07-21T10:51:09;25.70;99.90
12926;DHT22;6529;50.566;9.774;2022-07-21T10:53:35;26.00;99.90
12926;DHT22;6529;50.566;9.774;2022-07-21T10:56:02;26.10;99.90
12926;DHT22;6529;50.566;9.774;2022-07-21T10:58:39;26.40;99.90
12926;DHT22;6529;50.566;9.774;2022-07-21T11:01:25;26.80;99.90
12926;DHT22;6529;50.566;9.774;2022-07-21T11:06:34;26.80;99.90
12926;DHT22;6529;50.566;9.774;2022-07-21T11:11:31;26.70;99.90
12926;DHT22;6529;50.566;9.774;2022-07-21T11:16:59;26.90;99.90
12926;DHT22;6529;50.566;9.774;2022-07-21T11:19:46;27.10;99.90
12926;DHT22;6529;50.566;9.774;2022-07-21T11:22:20;27.10;99.90
12926;DHT22;6529;50.566;9.774;2022-07-21T11:24:57;26.80;99.90
12926;DHT22;6529;50.566;9.774;2022-07-21T11:27:24;27.10;99.90
12926;DHT22;6529;50.566;9.774;2022-07-21T11:29:54;26.60;99.90
12926;DHT22;6529;50.566;9.774;2022-07-21T11:32:20;26.10;99.90
12926;DHT22;6529;50.566;9.774;2022-07-21T11:35:00;26.50;99.90
12926;DHT22;6529;50.566;9.774;2022-07-21T11:37:32;26.90;99.90
12926;DHT22;6529;50.566;9.774;2022-07-21T11:39:58;26.60;99.90
12926;DHT22;6529;50.566;9.774;2022-07-21T11:42:26;26.30;99.90
12926;DHT22;6529;50.566;9.774;2022-07-21T11:44:52;26.30;99.90
12926;DHT22;6529;50.566;9.774;2022-07-21T11:47:17;26.00;99.90
12926;DHT22;6529;50.566;9.774;2022-07-21T11:49:46;25.90;99.90
12926;DHT22;6529;50.566;9.774;2022-07-21T11:52:16;26.10;99.90
12926;DHT22;6529;50.566;9.774;2022-07-21T11:54:48;26.20;99.90
12926;DHT22;6529;50.566;9.774;2022-07-21T11:57:16;26.70;99.90
12926;DHT22;6529;50.566;9.774;2022-07-21T11:59:42;26.80;99.90
12926;DHT22;6529;50.566;9.774;2022-07-21T12:04:47;26.40;99.90
12926;DHT22;6529;50.566;9.774;2022-07-21T12:07:22;26.40;99.90
12926;DHT22;6529;50.566;9.774;2022-07-21T12:09:52;26.30;99.90
12926;DHT22;6529;50.566;9.774;2022-07-21T12:14:53;25.90;99.90
12926;DHT22;6529;50.566;9.774;2022-07-21T12:17:37;25.80;99.90
12926;DHT22;6529;50.566;9.774;2022-07-21T12:20:06;25.80;99.90
12926;DHT22;6529;50.566;9.774;2022-07-21T12:22:34;25.80;99.90
12926;DHT22;6529;50.566;9.774;2022-07-21T12:25:00;25.90;99.90
12926;DHT22;6529;50.566;9.774;2022-07-21T12:27:26;26.00;99.90
12926;DHT22;6529;50.566;9.774;2022-07-21T12:29:52;26.10;99.90
12926;DHT22;6529;50.566;9.774;2022-07-21T12:32:44;26.10;99.90
12926;DHT22;6529;50.566;9.774;2022-07-21T12:35:23;26.70;99.90
12926;DHT22;6529;50.566;9.774;2022-07-21T12:38:00;26.90;99.90
12926;DHT22;6529;50.566;9.774;2022-07-21T12:40:27;27.10;99.90
12926;DHT22;6529;50.566;9.774;2022-07-21T12:43:10;27.40;99.90
12926;DHT22;6529;50.566;9.774;2022-07-21T12:45:56;27.80;99.90
12926;DHT22;6529;50.566;9.774;2022-07-21T12:48:33;27.70;99.60
12926;DHT22;6529;50.566;9.774;2022-07-21T12:51:03;27.40;99.90
12926;DHT22;6529;50.566;9.774;2022-07-21T12:53:30;27.40;99.90
12926;DHT22;6529;50.566;9.774;2022-07-21T12:55:56;26.90;99.90
12926;DHT22;6529;50.566;9.774;2022-07-21T12:58:22;26.40;99.90
12926;DHT22;6529;50.566;9.774;2022-07-21T13:00:48;26.40;99.90
12926;DHT22;6529;50.566;9.774;2022-07-21T13:03:14;26.90;99.90
12926;DHT22;6529;50.566;9.774;2022-07-21T13:05:39;27.50;99.90
12926;DHT22;6529;50.566;9.774;2022-07-21T13:08:05;27.90;99.90
12926;DHT22;6529;50.566;9.774;2022-07-21T13:10:31;28.20;98.50
12926;DHT22;6529;50.566;9.774;2022-07-21T13:12:56;27.90;99.10
12926;DHT22;6529;50.566;9.774;2022-07-21T13:15:22;28.10;98.20
12926;DHT22;6529;50.566;9.774;2022-07-21T13:17:48;27.90;98.20
12926;DHT22;6529;50.566;9.774;2022-07-21T13:20:14;27.60;99.50
12926;DHT22;6529;50.566;9.774;2022-07-21T13:22:40;27.20;99.90
12926;DHT22;6529;50.566;9.774;2022-07-21T13:25:08;26.90;99.90
12926;DHT22;6529;50.566;9.774;2022-07-21T13:27:34;27.00;99.90
12926;DHT22;6529;50.566;9.774;2022-07-21T13:30:01;27.40;99.90
12926;DHT22;6529;50.566;9.774;2022-07-21T13:32:27;27.90;99.90
12926;DHT22;6529;50.566;9.774;2022-07-21T13:34:52;28.40;99.50
12926;DHT22;6529;50.566;9.774;2022-07-21T13:37:18;28.50;99.50
12926;DHT22;6529;50.566;9.774;2022-07-21T13:39:43;28.50;97.30
12926;DHT22;6529;50.566;9.774;2022-07-21T13:42:09;28.20;98.10
12926;DHT22;6529;50.566;9.774;2022-07-21T13:44:35;28.10;98.20
12926;DHT22;6529;50.566;9.774;2022-07-21T13:47:01;28.00;97.30
12926;DHT22;6529;50.566;9.774;2022-07-21T13:49:27;27.60;96.80
12926;DHT22;6529;50.566;9.774;2022-07-21T13:51:52;27.40;97.20
12926;DHT22;6529;50.566;9.774;2022-07-21T13:54:18;27.40;99.30
12926;DHT22;6529;50.566;9.774;2022-07-21T13:56:44;27.40;99.90
12926;DHT22;6529;50.566;9.774;2022-07-21T13:59:09;27.50;98.60
12926;DHT22;6529;50.566;9.774;2022-07-21T14:01:35;27.30;97.40
12926;DHT22;6529;50.566;9.774;2022-07-21T14:04:00;27.10;98.50
12926;DHT22;6529;50.566;9.774;2022-07-21T14:06:26;27.00;99.30
12926;DHT22;6529;50.566;9.774;2022-07-21T14:08:52;27.10;99.60
12926;DHT22;6529;50.566;9.774;2022-07-21T14:11:18;27.30;99.70
12926;DHT22;6529;50.566;9.774;2022-07-21T14:13:44;27.30;99.00
12926;DHT22;6529;50.566;9.774;2022-07-21T14:16:09;27.60;99.60
12926;DHT22;6529;50.566;9.774;2022-07-21T14:18:35;27.50;98.60
12926;DHT22;6529;50.566;9.774;2022-07-21T14:21:01;27.60;98.40
12926;DHT22;6529;50.566;9.774;2022-07-21T14:23:27;27.50;98.00
12926;DHT22;6529;50.566;9.774;2022-07-21T14:25:52;27.70;98.10
12926;DHT22;6529;50.566;9.774;2022-07-21T14:28:19;27.90;97.10
12926;DHT22;6529;50.566;9.774;2022-07-21T14:30:45;28.00;96.60
12926;DHT22;6529;50.566;9.774;2022-07-21T14:33:10;27.90;96.80
12926;DHT22;6529;50.566;9.774;2022-07-21T14:35:36;28.00;97.30
12926;DHT22;6529;50.566;9.774;2022-07-21T14:38:02;28.20;96.80
12926;DHT22;6529;50.566;9.774;2022-07-21T14:40:29;28.30;95.50
12926;DHT22;6529;50.566;9.774;2022-07-21T14:42:54;28.20;95.10
12926;DHT22;6529;50.566;9.774;2022-07-21T14:45:22;28.50;95.60
12926;DHT22;6529;50.566;9.774;2022-07-21T14:47:48;28.30;94.70
12926;DHT22;6529;50.566;9.774;2022-07-21T14:50:14;27.80;95.40
12926;DHT22;6529;50.566;9.774;2022-07-21T14:52:41;27.80;96.60
12926;DHT22;6529;50.566;9.774;2022-07-21T14:55:07;27.50;96.40
12926;DHT22;6529;50.566;9.774;2022-07-21T14:57:33;27.50;96.90
12926;DHT22;6529;50.566;9.774;2022-07-21T14:59:59;27.60;96.60
12926;DHT22;6529;50.566;9.774;2022-07-21T15:02:25;27.70;96.50
12926;DHT22;6529;50.566;9.774;2022-07-21T15:04:51;27.80;95.50
12926;DHT22;6529;50.566;9.774;2022-07-21T15:07:16;27.70;96.10
12926;DHT22;6529;50.566;9.774;2022-07-21T15:09:42;27.70;95.60
12926;DHT22;6529;50.566;9.774;2022-07-21T15:12:08;27.50;96.30
12926;DHT22;6529;50.566;9.774;2022-07-21T15:14:35;27.50;95.70
12926;DHT22;6529;50.566;9.774;2022-07-21T15:17:01;27.40;95.30
12926;DHT22;6529;50.566;9.774;2022-07-21T15:19:27;27.20;95.30
12926;DHT22;6529;50.566;9.774;2022-07-21T15:21:53;27.10;95.30
12926;DHT22;6529;50.566;9.774;2022-07-21T15:24:19;27.00;96.20
12926;DHT22;6529;50.566;9.774;2022-07-21T15:26:44;27.00;96.90
12926;DHT22;6529;50.566;9.774;2022-07-21T15:29:10;27.30;96.10
12926;DHT22;6529;50.566;9.774;2022-07-21T15:31:36;27.60;95.60
12926;DHT22;6529;50.566;9.774;2022-07-21T15:34:03;27.60;95.30
12926;DHT22;6529;50.566;9.774;2022-07-21T15:36:29;27.60;94.80
12926;DHT22;6529;50.566;9.774;2022-07-21T15:38:56;27.50;94.50
12926;DHT22;6529;50.566;9.774;2022-07-21T15:41:25;27.50;94.60
12926;DHT22;6529;50.566;9.774;2022-07-21T15:43:51;27.40;94.30
12926;DHT22;6529;50.566;9.774;2022-07-21T15:46:17;27.40;94.10
12926;DHT22;6529;50.566;9.774;2022-07-21T15:48:42;27.40;94.10
12926;DHT22;6529;50.566;9.774;2022-07-21T15:51:08;27.20;94.10
12926;DHT22;6529;50.566;9.774;2022-07-21T15:53:34;27.10;93.80
12926;DHT22;6529;50.566;9.774;2022-07-21T15:56:04;27.10;94.30
12926;DHT22;6529;50.566;9.774;2022-07-21T15:58:30;27.00;93.70
12926;DHT22;6529;50.566;9.774;2022-07-21T16:00:57;27.00;94.50
12926;DHT22;6529;50.566;9.774;2022-07-21T16:03:23;26.90;94.70
12926;DHT22;6529;50.566;9.774;2022-07-21T16:05:49;26.90;95.00
12926;DHT22;6529;50.566;9.774;2022-07-21T16:08:15;26.70;94.60
12926;DHT22;6529;50.566;9.774;2022-07-21T16:10:41;26.60;95.20
12926;DHT22;6529;50.566;9.774;2022-07-21T16:13:07;26.50;95.40
12926;DHT22;6529;50.566;9.774;2022-07-21T16:15:33;26.50;95.70
12926;DHT22;6529;50.566;9.774;2022-07-21T16:17:59;26.60;95.80